Time;durP1;ratioP1;P1;durP2;ratioP2;P2;SDS_P1;SDS_P2;PMS_P1;PMS_P2;Temp;Humidity;BMP_temperature;BMP_pressure;BME280_temperature;BME280_humidity;BME280_pressure;Samples;Min_cycle;Max_cycle;Signal;HPM_P1;HPM_P2
2020/12/01 00:01:55;;;;;;;39.00;26.88;;;6.80;99.90;;;;;;5097812;28;20417;-93
2020/12/01 00:04:38;;;;;;;39.35;25.45;;;6.80;99.90;;;;;;5115905;28;20051;-92
2020/12/01 00:07:12;;;;;;;37.38;23.77;;;6.80;99.90;;;;;;5115581;28;20031;-91
2020/12/01 00:09:38;;;;;;;35.40;22.00;;;6.80;99.90;;;;;;5097741;28;20067;-91
2020/12/01 00:12:05;;;;;;;35.72;23.65;;;6.80;99.90;;;;;;5096361;28;20054;-92
2020/12/01 00:14:33;;;;;;;35.40;23.40;;;6.90;99.90;;;;;;5078784;28;20117;-90
2020/12/01 00:16:59;;;;;;;31.13;21.45;;;6.90;99.90;;;;;;5095631;28;20106;-91
2020/12/01 00:19:26;;;;;;;31.40;20.67;;;6.80;99.90;;;;;;5096695;28;20035;-91
2020/12/01 00:21:52;;;;;;;31.25;20.33;;;6.90;99.90;;;;;;5114377;28;20471;-91
2020/12/01 00:24:18;;;;;;;29.98;20.10;;;6.80;99.90;;;;;;5080593;28;20032;-91
2020/12/01 00:26:49;;;;;;;38.80;24.38;;;6.90;99.90;;;;;;5095907;28;20032;-93
2020/12/01 00:29:15;;;;;;;36.35;23.67;;;6.90;99.90;;;;;;5080361;28;20028;-91
2020/12/01 00:31:43;;;;;;;28.85;20.17;;;6.80;99.90;;;;;;5099703;28;20022;-91
2020/12/01 00:34:20;;;;;;;29.70;20.45;;;6.80;99.90;;;;;;5080244;28;20477;-91
2020/12/01 00:37:03;;;;;;;30.77;20.55;;;6.80;99.90;;;;;;5097041;28;20127;-91
2020/12/01 00:39:31;;;;;;;35.53;21.10;;;6.80;99.90;;;;;;5097152;28;20036;-91
2020/12/01 00:41:57;;;;;;;30.30;20.98;;;6.80;99.90;;;;;;5096610;28;20059;-90
2020/12/01 00:44:23;;;;;;;32.47;21.02;;;6.80;99.90;;;;;;5096122;28;20404;-92
2020/12/01 00:46:52;;;;;;;38.45;23.08;;;6.80;99.90;;;;;;5100989;28;20050;-92
2020/12/01 00:49:18;;;;;;;34.33;22.13;;;6.80;99.90;;;;;;5114084;28;20020;-91
2020/12/01 00:51:50;;;;;;;37.90;24.02;;;6.80;99.90;;;;;;5113920;28;20031;-91
2020/12/01 00:54:18;;;;;;;36.83;22.55;;;6.90;99.90;;;;;;5080628;28;20046;-92
2020/12/01 00:56:44;;;;;;;32.92;20.52;;;6.90;99.90;;;;;;5113935;28;20046;-91
2020/12/01 00:59:10;;;;;;;36.80;22.40;;;6.90;99.90;;;;;;5113855;28;20031;-91
2020/12/01 01:01:39;;;;;;;39.53;21.58;;;6.90;99.90;;;;;;5096263;28;20028;-92
2020/12/01 01:04:07;;;;;;;35.38;20.90;;;6.90;99.90;;;;;;5119393;28;20111;-91
2020/12/01 01:06:32;;;;;;;39.38;23.42;;;6.90;99.90;;;;;;5084626;28;20045;-90
2020/12/01 01:09:01;;;;;;;31.23;19.00;;;6.90;99.90;;;;;;5101061;28;20123;-90
2020/12/01 01:11:32;;;;;;;24.10;16.85;;;7.00;99.90;;;;;;5117606;28;20061;-90
2020/12/01 01:13:59;;;;;;;27.67;18.13;;;7.10;99.90;;;;;;5119114;28;20024;-91
2020/12/01 01:16:25;;;;;;;25.58;17.33;;;7.20;99.90;;;;;;5117827;28;20078;-92
2020/12/01 01:18:54;;;;;;;22.80;14.82;;;7.20;99.90;;;;;;5118018;28;20051;-92
2020/12/01 01:21:23;;;;;;;24.05;14.52;;;7.20;99.90;;;;;;5100974;28;20105;-93
2020/12/01 01:23:52;;;;;;;20.55;12.52;;;7.20;99.90;;;;;;5117596;28;20080;-92
2020/12/01 01:26:18;;;;;;;24.48;14.80;;;7.30;99.90;;;;;;5100790;28;20119;-92
2020/12/01 01:28:44;;;;;;;21.77;12.93;;;7.30;99.90;;;;;;5084309;28;20035;-92
2020/12/01 01:31:10;;;;;;;21.88;12.23;;;7.30;99.90;;;;;;5116797;28;20042;-92
2020/12/01 01:33:36;;;;;;;21.15;10.90;;;7.30;99.90;;;;;;5100591;28;20036;-93
2020/12/01 01:36:02;;;;;;;22.75;10.45;;;7.30;99.90;;;;;;5117333;28;20039;-92
2020/12/01 01:38:28;;;;;;;15.63;8.85;;;7.20;99.90;;;;;;5116531;28;20458;-94
2020/12/01 01:40:57;;;;;;;19.15;9.95;;;7.20;99.90;;;;;;5099359;28;20049;-93
2020/12/01 01:43:25;;;;;;;18.60;9.35;;;7.20;99.90;;;;;;5099317;28;20057;-91
2020/12/01 01:45:55;;;;;;;17.92;8.77;;;7.20;99.90;;;;;;5099096;28;20377;-92
2020/12/01 01:48:27;;;;;;;16.38;7.80;;;7.20;99.90;;;;;;5100041;28;20040;-91
2020/12/01 01:51:19;;;;;;;20.80;6.85;;;7.20;99.90;;;;;;5099951;28;20055;-91
2020/12/01 01:53:52;;;;;;;19.95;5.85;;;7.20;99.90;;;;;;5099557;28;20019;-91
2020/12/01 01:56:25;;;;;;;14.33;5.57;;;7.10;99.90;;;;;;5100236;28;20039;-90
2020/12/01 01:58:57;;;;;;;12.45;4.45;;;7.10;99.90;;;;;;5083274;28;20031;-91
2020/12/01 02:01:26;;;;;;;13.23;4.28;;;7.10;99.90;;;;;;5101088;28;20020;-91
2020/12/01 02:04:01;;;;;;;11.90;3.53;;;7.00;99.90;;;;;;5100198;28;20490;-92
2020/12/01 02:06:31;;;;;;;12.25;3.47;;;6.90;99.90;;;;;;5099918;28;20027;-93
2020/12/01 02:09:00;;;;;;;11.88;3.10;;;6.90;99.90;;;;;;5099581;28;20096;-92
2020/12/01 02:11:29;;;;;;;8.32;2.90;;;6.80;99.90;;;;;;5099217;28;20135;-92
2020/12/01 02:14:17;;;;;;;9.88;3.42;;;6.70;99.90;;;;;;5098142;28;20032;-91
2020/12/01 02:16:50;;;;;;;9.77;2.42;;;6.60;99.90;;;;;;5098853;28;20042;-92
2020/12/01 02:19:20;;;;;;;8.00;2.63;;;6.60;99.90;;;;;;5099123;28;20118;-91
2020/12/01 02:21:46;;;;;;;13.80;2.83;;;6.50;99.90;;;;;;5098724;28;20047;-92
2020/12/01 02:24:16;;;;;;;9.82;2.47;;;6.40;99.90;;;;;;5098446;28;20430;-91
2020/12/01 02:26:46;;;;;;;10.02;2.50;;;6.40;99.90;;;;;;5098594;28;20126;-92
2020/12/01 02:29:16;;;;;;;9.77;2.60;;;6.30;99.90;;;;;;5116061;28;20050;-92
2020/12/01 02:31:46;;;;;;;10.98;2.47;;;6.30;99.90;;;;;;5099472;28;20027;-91
2020/12/01 02:34:16;;;;;;;10.40;1.80;;;6.30;99.90;;;;;;5117541;28;20031;-92
2020/12/01 02:36:42;;;;;;;13.10;2.50;;;6.20;99.90;;;;;;5117256;28;20040;-91
2020/12/01 02:39:09;;;;;;;5.75;2.03;;;6.10;99.90;;;;;;5099319;28;20481;-92
2020/12/01 02:41:36;;;;;;;7.47;1.73;;;6.10;99.90;;;;;;5099361;28;20055;-90
2020/12/01 02:44:04;;;;;;;12.55;1.67;;;6.00;99.90;;;;;;5099886;28;20106;-91
2020/12/01 02:46:36;;;;;;;11.20;2.17;;;6.00;99.90;;;;;;5082036;28;20475;-91
2020/12/01 02:49:04;;;;;;;6.78;1.52;;;6.00;99.90;;;;;;5099269;28;20177;-91
2020/12/01 02:51:30;;;;;;;7.50;1.77;;;6.00;99.90;;;;;;5099235;28;20466;-91
2020/12/01 02:53:56;;;;;;;10.23;2.00;;;5.90;99.90;;;;;;5098932;28;20024;-90
2020/12/01 02:56:22;;;;;;;7.35;2.05;;;5.90;99.90;;;;;;5098829;28;20124;-91
2020/12/01 02:58:47;;;;;;;9.32;1.60;;;5.90;99.90;;;;;;5098603;28;20038;-91
2020/12/01 03:01:13;;;;;;;10.27;1.83;;;5.90;99.90;;;;;;5116952;28;20063;-91
2020/12/01 03:03:39;;;;;;;11.32;2.30;;;5.90;99.90;;;;;;5098523;28;20034;-91
2020/12/01 03:06:13;;;;;;;10.10;2.28;;;6.00;99.90;;;;;;5116939;28;20066;-91
2020/12/01 03:08:39;;;;;;;10.45;2.00;;;6.00;99.90;;;;;;5099000;28;20379;-92
2020/12/01 03:11:04;;;;;;;12.95;2.65;;;6.00;99.90;;;;;;5098719;28;20114;-91
2020/12/01 03:13:30;;;;;;;9.85;2.42;;;6.00;99.90;;;;;;5098465;28;20062;-91
2020/12/01 03:16:01;;;;;;;15.00;2.00;;;6.00;99.90;;;;;;5081658;28;20130;-92
2020/12/01 03:18:27;;;;;;;9.18;1.90;;;6.00;99.90;;;;;;5098540;28;20054;-91
2020/12/01 03:20:56;;;;;;;10.73;1.50;;;6.00;99.90;;;;;;5098375;28;20031;-91
2020/12/01 03:23:27;;;;;;;9.43;1.45;;;6.00;99.90;;;;;;5116168;28;20524;-91
2020/12/01 03:25:56;;;;;;;9.70;1.52;;;5.90;99.90;;;;;;5098113;28;20028;-90
2020/12/01 03:28:22;;;;;;;7.20;1.13;;;5.90;99.90;;;;;;5081413;28;20020;-93
2020/12/01 03:30:48;;;;;;;12.45;1.48;;;5.80;99.90;;;;;;5098384;28;20038;-92
2020/12/01 03:33:13;;;;;;;9.27;1.58;;;5.80;99.90;;;;;;5081577;28;20035;-92
2020/12/01 03:35:39;;;;;;;11.90;2.00;;;5.80;99.90;;;;;;5098150;28;20507;-94
2020/12/01 03:38:05;;;;;;;8.30;1.35;;;5.90;99.90;;;;;;5098220;28;20525;-93
2020/12/01 03:40:31;;;;;;;13.20;1.70;;;5.80;99.90;;;;;;5098156;28;20459;-94
2020/12/01 03:42:56;;;;;;;8.13;1.42;;;5.80;99.90;;;;;;5115626;28;20031;-92
2020/12/01 03:45:22;;;;;;;10.07;1.58;;;5.80;99.90;;;;;;5097936;28;20051;-93
2020/12/01 03:47:51;;;;;;;13.73;3.00;;;5.80;99.90;;;;;;5097768;28;20131;-91
2020/12/01 03:50:17;;;;;;;12.63;2.03;;;6.00;99.90;;;;;;5098072;28;20110;-91
2020/12/01 03:52:43;;;;;;;9.02;2.30;;;6.00;99.90;;;;;;5097901;28;20051;-91
2020/12/01 03:55:08;;;;;;;13.25;2.00;;;6.10;99.90;;;;;;5097945;28;20024;-92
2020/12/01 03:57:40;;;;;;;15.23;2.03;;;6.10;99.90;;;;;;5080965;28;20043;-92
2020/12/01 04:00:16;;;;;;;15.15;2.40;;;6.20;99.90;;;;;;5097789;28;20031;-92
2020/12/01 04:02:41;;;;;;;13.20;2.40;;;6.20;99.90;;;;;;5080952;28;20028;-92
2020/12/01 04:05:08;;;;;;;9.77;1.83;;;6.10;99.90;;;;;;5097577;28;20031;-92
2020/12/01 04:07:33;;;;;;;8.05;2.08;;;6.10;99.90;;;;;;5097752;28;20352;-92
2020/12/01 04:09:59;;;;;;;14.40;2.40;;;6.20;99.90;;;;;;5097523;28;20061;-92
2020/12/01 04:12:27;;;;;;;9.77;1.30;;;6.10;99.90;;;;;;5097675;28;20081;-91
2020/12/01 04:14:52;;;;;;;12.77;1.55;;;6.10;99.90;;;;;;5115830;28;20451;-92
2020/12/01 04:17:18;;;;;;;11.57;2.03;;;6.10;99.90;;;;;;5114766;28;20042;-92
2020/12/01 04:19:44;;;;;;;9.27;1.80;;;6.20;99.90;;;;;;5115733;28;20031;-92
2020/12/01 04:22:11;;;;;;;11.95;2.03;;;6.20;99.90;;;;;;5097492;28;20069;-91
2020/12/01 04:24:38;;;;;;;14.18;2.42;;;6.30;99.90;;;;;;5097005;28;20024;-92
2020/12/01 04:27:04;;;;;;;15.50;2.30;;;6.30;99.90;;;;;;5097652;28;20493;-93
2020/12/01 04:29:30;;;;;;;13.18;2.00;;;6.30;99.90;;;;;;5097504;28;20032;-92
2020/12/01 04:31:56;;;;;;;9.50;1.45;;;6.30;99.90;;;;;;5080337;28;20027;-92
2020/12/01 04:34:22;;;;;;;13.27;2.55;;;6.30;99.90;;;;;;5097272;28;20039;-92
2020/12/01 04:36:47;;;;;;;16.67;2.33;;;6.30;99.90;;;;;;5096884;28;20099;-93
2020/12/01 04:39:13;;;;;;;8.75;1.92;;;6.30;99.90;;;;;;5115637;28;20031;-92
2020/12/01 04:41:39;;;;;;;13.77;2.22;;;6.30;99.90;;;;;;5097255;28;20023;-93
2020/12/01 04:44:06;;;;;;;13.25;1.85;;;6.30;99.90;;;;;;5115578;28;20020;-92
2020/12/01 04:46:35;;;;;;;11.07;1.92;;;6.30;99.90;;;;;;5096846;28;20040;-92
2020/12/01 04:49:18;;;;;;;11.40;2.00;;;6.30;99.90;;;;;;5097347;28;20048;-92
2020/12/01 04:52:08;;;;;;;12.95;2.05;;;6.40;99.90;;;;;;5097175;28;20038;-91
2020/12/01 04:55:12;;;;;;;11.05;1.95;;;6.30;99.90;;;;;;5096685;28;20038;-91
2020/12/01 04:58:08;;;;;;;7.30;2.00;;;6.30;99.90;;;;;;5030650;28;20544;-91
2020/12/01 05:01:01;;;;;;;10.68;2.42;;;6.30;99.90;;;;;;5096718;28;20024;-91
2020/12/01 05:03:48;;;;;;;11.02;2.10;;;6.30;99.90;;;;;;5096898;28;20039;-92
2020/12/01 05:06:58;;;;;;;10.02;2.22;;;6.30;99.90;;;;;;5096524;28;20474;-91
2020/12/01 05:09:43;;;;;;;13.00;1.67;;;6.30;99.90;;;;;;5096954;28;20366;-91
2020/12/01 05:12:15;;;;;;;12.95;2.10;;;6.30;99.90;;;;;;5096859;28;20475;-90
2020/12/01 05:14:54;;;;;;;15.02;2.10;;;6.30;99.90;;;;;;5096849;28;20408;-91
2020/12/01 05:17:42;;;;;;;9.90;2.28;;;6.40;99.90;;;;;;5096816;28;20086;-92
2020/12/01 05:20:08;;;;;;;11.00;2.28;;;6.40;99.90;;;;;;5096547;28;20036;-91
2020/12/01 05:22:33;;;;;;;10.88;1.77;;;6.30;99.90;;;;;;5096487;28;20122;-92
2020/12/01 05:25:00;;;;;;;16.02;2.67;;;6.40;99.90;;;;;;5096748;28;20035;-91
2020/12/01 05:27:35;;;;;;;6.65;1.75;;;6.40;99.90;;;;;;5079932;28;20038;-91
2020/12/01 05:30:06;;;;;;;9.43;1.80;;;6.40;99.90;;;;;;5114949;28;20110;-91
2020/12/01 05:32:37;;;;;;;9.85;2.78;;;6.40;99.90;;;;;;5096932;28;20020;-91
2020/12/01 05:35:32;;;;;;;11.25;2.05;;;6.50;99.90;;;;;;5096846;28;20055;-92
2020/12/01 05:38:01;;;;;;;14.55;3.00;;;6.50;99.90;;;;;;5096888;28;20494;-92
2020/12/01 05:40:31;;;;;;;11.88;1.88;;;6.50;99.90;;;;;;5114717;28;20039;-91
2020/12/01 05:42:57;;;;;;;7.78;2.17;;;6.50;99.90;;;;;;5095842;28;20032;-91
2020/12/01 05:45:31;;;;;;;15.82;2.80;;;6.50;99.90;;;;;;5096603;28;20405;-91
2020/12/01 05:48:16;;;;;;;13.88;2.33;;;6.50;99.90;;;;;;5090893;28;20059;-91
2020/12/01 05:51:07;;;;;;;10.75;2.08;;;6.60;99.90;;;;;;5098811;28;20035;-91
2020/12/01 05:53:37;;;;;;;6.75;2.10;;;6.60;99.90;;;;;;5116973;28;20023;-93
2020/12/01 05:56:16;;;;;;;9.25;1.77;;;6.60;99.90;;;;;;5098579;28;20027;-92
2020/12/01 05:58:50;;;;;;;10.32;1.60;;;6.60;99.90;;;;;;5104085;28;20032;-93
2020/12/01 06:01:15;;;;;;;12.23;1.70;;;6.60;99.90;;;;;;5116280;28;20030;-94
2020/12/01 06:04:00;;;;;;;13.18;2.40;;;6.60;99.90;;;;;;5111472;28;20028;-92
2020/12/01 06:06:32;;;;;;;13.30;2.92;;;6.60;99.90;;;;;;5083667;28;20031;-93
2020/12/01 06:09:04;;;;;;;8.68;2.10;;;6.60;99.90;;;;;;5105433;28;20028;-93
2020/12/01 06:11:36;;;;;;;10.75;2.33;;;6.70;99.90;;;;;;5115730;28;20027;-92
2020/12/01 06:14:39;;;;;;;10.40;2.50;;;6.70;99.90;;;;;;5114345;28;20031;-94
2020/12/01 06:17:11;;;;;;;6.60;2.53;;;6.70;99.90;;;;;;5104911;28;20046;-94
2020/12/01 06:19:56;;;;;;;10.18;3.00;;;6.70;99.90;;;;;;5093955;28;20036;-93
2020/12/01 06:22:51;;;;;;;10.00;2.78;;;6.70;99.90;;;;;;5104778;28;20031;-94
2020/12/01 06:25:56;;;;;;;7.82;3.03;;;6.70;99.90;;;;;;5103713;28;20058;-95
2020/12/01 06:28:41;;;;;;;11.55;3.40;;;6.70;99.90;;;;;;5081502;28;20020;-93
2020/12/01 06:31:34;;;;;;;7.28;3.20;;;6.70;99.90;;;;;;5107354;28;20034;-92
2020/12/01 06:34:11;;;;;;;7.70;3.22;;;6.80;99.90;;;;;;5097446;28;20493;-93
2020/12/01 06:37:11;;;;;;;10.10;3.70;;;6.80;99.90;;;;;;5094239;28;20382;-93
2020/12/01 06:40:03;;;;;;;12.80;3.88;;;6.80;99.90;;;;;;5096279;28;20031;-94
2020/12/01 06:42:44;;;;;;;9.70;4.07;;;6.80;99.90;;;;;;5095906;28;20408;-93
2020/12/01 06:45:31;;;;;;;7.22;3.15;;;6.70;99.90;;;;;;5095871;28;20063;-93
2020/12/01 06:48:11;;;;;;;12.07;4.18;;;6.80;99.90;;;;;;5095343;28;20078;-93
2020/12/01 06:50:48;;;;;;;10.68;4.70;;;6.80;99.90;;;;;;5095422;28;20031;-93
2020/12/01 06:53:27;;;;;;;12.82;5.13;;;6.80;99.90;;;;;;5099788;28;20429;-93
2020/12/01 06:56:00;;;;;;;10.45;5.40;;;6.80;99.90;;;;;;5099032;28;20039;-92
2020/12/01 06:58:26;;;;;;;11.77;5.03;;;6.80;99.90;;;;;;5098253;28;20467;-94
2020/12/01 07:01:21;;;;;;;12.68;5.00;;;6.80;99.90;;;;;;5096262;28;20058;-93
2020/12/01 07:04:17;;;;;;;12.45;5.40;;;6.90;99.90;;;;;;5096240;28;20027;-92
2020/12/01 07:07:10;;;;;;;11.65;5.10;;;6.90;99.90;;;;;;5098331;28;20165;-94
2020/12/01 07:09:48;;;;;;;11.45;5.20;;;6.90;99.90;;;;;;5128291;27;20070;-94
2020/12/01 07:12:24;;;;;;;;;;;;;;;;;;;;;
2020/12/01 07:15:35;;;;;;;13.77;6.75;;;7.00;99.90;;;;;;5115686;28;20031;-91
2020/12/01 07:18:32;;;;;;;15.45;7.05;;;7.00;99.90;;;;;;5097378;28;20058;-91
2020/12/01 07:21:30;;;;;;;;;;;;;;;;;;;;;
2020/12/01 07:24:12;;;;;;;12.75;6.63;;;7.10;99.90;;;;;;5115889;27;20470;-95
2020/12/01 07:26:54;;;;;;;13.98;6.18;;;7.20;99.90;;;;;;5097980;28;20035;-94
2020/12/01 07:29:49;;;;;;;11.90;6.63;;;7.20;99.90;;;;;;5096763;28;20051;-93
2020/12/01 07:32:56;;;;;;;;;;;;;;;;;;;;;
2020/12/01 07:35:47;;;;;;;11.38;5.97;;;7.30;99.90;;;;;;5113834;28;20033;-91
2020/12/01 07:38:57;;;;;;;11.35;6.55;;;7.40;99.90;;;;;;5092123;28;20040;-92
2020/12/01 07:41:28;;;;;;;13.20;6.40;;;7.40;99.90;;;;;;5086190;28;20506;-91
2020/12/01 07:43:58;;;;;;;10.32;5.85;;;7.50;99.90;;;;;;5093936;28;20024;-90
2020/12/01 07:46:30;;;;;;;9.63;5.13;;;7.60;99.90;;;;;;5093776;28;20163;-90
2020/12/01 07:49:12;;;;;;;12.75;5.03;;;7.60;99.90;;;;;;5093803;28;20119;-92
2020/12/01 07:51:45;;;;;;;11.77;5.05;;;7.70;99.90;;;;;;5093927;28;20240;-89
2020/12/01 07:54:23;;;;;;;9.95;3.08;;;7.70;99.90;;;;;;5081029;28;20031;-90
2020/12/01 07:56:56;;;;;;;10.00;3.00;;;7.80;99.90;;;;;;5115522;28;20458;-91
2020/12/01 07:59:43;;;;;;;;;;;;;;;;;;;;;
2020/12/01 08:02:39;;;;;;;;;;;;;;;;;;;;;
2020/12/01 08:05:48;;;;;;;;;;;;;;;;;;;;;
2020/12/01 08:08:27;;;;;;;11.10;2.40;;;7.90;99.90;;;;;;5114881;28;20040;-91
2020/12/01 08:15:08;;;;;;;19.13;4.22;;;8.00;99.90;;;;;;5082647;28;20463;-91
2020/12/01 08:27:40;;;;;;;16.67;2.72;;;8.00;99.90;;;;;;5105887;27;20031;-91
2020/12/01 08:30:36;;;;;;;25.50;3.53;;;8.00;99.90;;;;;;5103677;27;20034;-90
2020/12/01 08:33:57;;;;;;;34.65;3.40;;;8.00;99.90;;;;;;5150525;27;20034;-91
2020/12/01 08:36:45;;;;;;;32.10;4.50;;;8.00;99.90;;;;;;5031772;28;20030;-90
2020/12/01 08:39:45;;;;;;;;;;;;;;;;;;;;;
2020/12/01 08:42:45;;;;;;;25.75;3.95;;;8.00;99.90;;;;;;5115322;28;20473;-91
2020/12/01 08:45:41;;;;;;;20.38;3.28;;;8.00;99.90;;;;;;5113519;28;20119;-90
2020/12/01 08:48:45;;;;;;;24.10;4.10;;;8.00;99.90;;;;;;5134557;27;20030;-91
2020/12/01 08:51:39;;;;;;;;;;;8.00;99.90;;;;;;5078589;28;20483;-90
2020/12/01 08:54:57;;;;;;;22.55;4.18;;;8.00;99.90;;;;;;5051804;28;19944;-91
2020/12/01 08:58:22;;;;;;;;;;;;;;;;;;;;;
2020/12/01 09:01:26;;;;;;;28.23;4.25;;;8.00;99.90;;;;;;5002860;28;20038;-90
2020/12/01 09:04:19;;;;;;;23.55;4.20;;;8.00;99.90;;;;;;5055572;28;20036;-92
2020/12/01 09:06:47;;;;;;;33.97;4.72;;;8.00;99.90;;;;;;5084723;28;20111;-91
2020/12/01 09:09:29;;;;;;;34.38;4.50;;;8.10;99.90;;;;;;5151632;27;20062;-90
2020/12/01 09:13:06;;;;;;;;;;;;;;;;;;;;;
2020/12/01 09:23:34;;;;;;;27.80;3.88;;;8.20;99.90;;;;;;5008735;28;20021;-91
2020/12/01 09:26:32;;;;;;;30.45;4.65;;;8.20;99.90;;;;;;5017323;28;20041;-92
2020/12/01 09:29:58;;;;;;;;;;;;;;;;;;;;;
2020/12/01 09:32:38;;;;;;;;;;;;;;;;;;;;;
2020/12/01 09:35:31;;;;;;;28.80;4.20;;;8.20;99.90;;;;;;5126199;27;20029;-91
2020/12/01 09:38:07;;;;;;;22.20;4.25;;;8.20;99.90;;;;;;5123338;27;20082;-91
2020/12/01 09:40:51;;;;;;;;;;;;;;;;;;;;;
2020/12/01 09:46:32;;;;;;;34.30;5.07;;;8.20;99.90;;;;;;5122600;27;20445;-91
2020/12/01 09:49:34;;;;;;;;;;;;;;;;;;;;;
2020/12/01 09:52:47;;;;;;;;;;;;;;;;;;;;;
2020/12/01 09:59:00;;;;;;;32.28;4.18;;;8.30;99.90;;;;;;5138593;27;20053;-92
2020/12/01 10:04:59;;;;;;;35.25;4.25;;;8.40;99.90;;;;;;5116207;28;20042;-92
2020/12/01 10:08:14;;;;;;;;;;;;;;;;;;;;;
2020/12/01 10:36:28;;;;;;;28.23;4.35;;;8.50;99.90;;;;;;5138300;27;20031;-92
2020/12/01 10:39:00;;;;;;;24.77;3.80;;;8.50;99.90;;;;;;5131367;27;20035;-93
2020/12/01 10:41:50;;;;;;;;;;;;;;;;;;;;;
2020/12/01 10:44:22;;;;;;;34.92;4.57;;;8.50;99.90;;;;;;5152413;27;20023;-92
2020/12/01 10:47:00;;;;;;;;;;;;;;;;;;;;;
2020/12/01 10:49:26;;;;;;;24.63;4.20;;;8.50;99.90;;;;;;5118100;27;20043;-91
2020/12/01 10:51:56;;;;;;;26.27;4.05;;;8.50;99.90;;;;;;5150029;27;20026;-90
2020/12/01 10:54:49;;;;;;;25.08;4.25;;;8.60;99.90;;;;;;5124568;27;20472;-91
2020/12/01 10:57:14;;;;;;;22.63;3.50;;;8.60;99.90;;;;;;5126012;27;20023;-90
2020/12/01 10:59:42;;;;;;;17.60;3.38;;;8.60;99.90;;;;;;5125334;27;20462;-92
2020/12/01 11:02:13;;;;;;;26.33;3.90;;;8.60;99.90;;;;;;5139218;27;20019;-91
2020/12/01 11:04:39;;;;;;;24.75;3.72;;;8.60;99.90;;;;;;5139117;27;20117;-91
2020/12/01 11:07:15;;;;;;;27.42;4.03;;;8.60;99.90;;;;;;5171015;27;20403;-92
2020/12/01 11:09:43;;;;;;;21.42;3.47;;;8.70;99.90;;;;;;5137557;27;20027;-92
2020/12/01 11:12:12;;;;;;;25.65;3.55;;;8.60;99.90;;;;;;5101555;27;20034;-92
2020/12/01 11:14:59;;;;;;;20.40;3.22;;;8.70;99.90;;;;;;5136464;27;20027;-91
2020/12/01 11:17:45;;;;;;;20.73;3.00;;;8.80;99.90;;;;;;5118044;27;20027;-90
2020/12/01 11:20:33;;;;;;;27.73;5.20;;;8.80;99.90;;;;;;5112481;27;20045;-93
2020/12/01 11:23:12;;;;;;;;;;;;;;;;;;;;;
2020/12/01 11:25:42;;;;;;;27.67;3.97;;;8.90;99.90;;;;;;5097525;27;20054;-92
2020/12/01 11:28:30;;;;;;;36.42;4.63;;;9.00;99.90;;;;;;5127594;27;20049;-92
2020/12/01 11:31:41;;;;;;;20.25;3.45;;;9.00;99.90;;;;;;5134715;27;20039;-90
2020/12/01 11:37:38;;;;;;;24.13;3.42;;;9.00;99.90;;;;;;5127564;27;20524;-92
2020/12/01 11:40:32;;;;;;;28.98;4.07;;;9.00;99.90;;;;;;5135213;27;20649;-91
2020/12/01 11:43:12;;;;;;;18.40;3.08;;;9.00;99.90;;;;;;5125297;27;20019;-93
2020/12/01 11:45:58;;;;;;;26.52;3.58;;;9.00;99.90;;;;;;5134864;27;20034;-91
2020/12/01 11:49:17;;;;;;;21.20;3.00;;;9.00;99.90;;;;;;5134748;27;20035;-91
2020/12/01 11:52:01;;;;;;;17.33;2.72;;;8.90;99.90;;;;;;5134618;27;20030;-92
2020/12/01 11:54:44;;;;;;;24.92;4.45;;;9.00;99.90;;;;;;5133720;27;20122;-91
2020/12/01 11:58:04;;;;;;;;;;;;;;;;;;;;;
2020/12/01 12:03:21;;;;;;;;;;;;;;;;;;;;;
2020/12/01 12:06:21;;;;;;;;;;;;;;;;;;;;;
2020/12/01 12:09:27;;;;;;;;;;;;;;;;;;;;;
2020/12/01 12:12:33;;;;;;;;;;;;;;;;;;;;;
2020/12/01 12:15:15;;;;;;;16.50;2.30;;;9.10;99.90;;;;;;5135570;27;20031;-90
2020/12/01 12:25:21;;;;;;;;;;;;;;;;;;;;;
2020/12/01 12:28:48;;;;;;;;;;;;;;;;;;;;;
2020/12/01 12:31:49;;;;;;;16.13;3.20;;;9.10;99.90;;;;;;5013995;28;20030;-92
2020/12/01 12:35:00;;;;;;;16.50;3.17;;;9.20;99.90;;;;;;5043157;28;20028;-91
2020/12/01 12:37:39;;;;;;;23.08;3.65;;;9.20;99.90;;;;;;5065218;28;20380;-90
2020/12/01 12:50:48;;;;;;;18.42;4.15;;;9.30;99.90;;;;;;5002998;28;20053;-89
2020/12/01 12:54:21;;;;;;;;;;;;;;;;;;;;;
2020/12/01 13:01:04;;;;;;;;;;;;;;;;;;;;;
2020/12/01 13:04:18;;;;;;;15.70;2.80;;;9.70;99.90;;;;;;4965633;28;20030;-89
2020/12/01 13:07:48;;;;;;;17.38;3.00;;;9.70;99.90;;;;;;5059451;28;20041;-90
2020/12/01 14:41:16;;;;;;;;;;;;;;;;;;;;;
2020/12/01 14:44:16;;;;;;;7.93;1.58;;;9.00;99.90;;;;;;5049743;28;20029;-91
2020/12/01 14:47:33;;;;;;;;;;;;;;;;;;;;;
2020/12/01 14:54:45;;;;;;;;;;;;;;;;;;;;;
2020/12/01 15:15:06;;;;;;;;;;;;;;;;;;;;;
2020/12/01 15:21:51;;;;;;;;;;;;;;;;;;;;;
2020/12/01 15:25:01;;;;;;;9.50;1.48;;;8.70;99.90;;;;;;4832122;29;20474;-90
2020/12/01 15:33:57;;;;;;;10.85;2.08;;;8.70;99.90;;;;;;4978277;28;20037;-89
2020/12/01 15:37:29;;;;;;;9.68;1.60;;;8.70;99.90;;;;;;5009643;28;20360;-91
2020/12/01 15:40:11;;;;;;;;;;;;;;;;;;;;;
2020/12/01 15:43:33;;;;;;;8.50;1.95;;;8.60;99.90;;;;;;5051105;28;20029;-90
2020/12/01 16:08:05;;;;;;;5.18;1.80;;;8.20;99.90;;;;;;4940304;29;20062;-92
2020/12/01 16:11:01;;;;;;;;;;;;;;;;;;;;;
2020/12/01 16:14:03;;;;;;;;;;;;;;;;;;;;;
2020/12/01 16:20:20;;;;;;;5.28;2.20;;;8.10;99.90;;;;;;4986791;28;20126;-91
2020/12/01 16:27:09;;;;;;;;;;;;;;;;;;;;;
2020/12/01 16:30:07;;;;;;;;;;;;;;;;;;;;;
2020/12/01 18:13:02;;;;;;;10.63;6.50;;;8.00;99.90;;;;;;5115087;27;20051;-89
2020/12/01 18:16:04;;;;;;;9.77;6.60;;;8.00;99.90;;;;;;5123923;27;20062;-91
2020/12/01 19:02:44;;;;;;;13.13;8.38;;;7.90;99.90;;;;;;5114105;28;20024;-88
2020/12/01 19:40:46;;;;;;;;;;;;;;;;;;;;;
2020/12/01 19:53:42;;;;;;;12.57;8.80;;;7.80;99.90;;;;;;5112281;28;20030;-88
2020/12/01 20:03:21;;;;;;;13.50;9.25;;;7.80;99.90;;;;;;5034492;28;21016;-90
2020/12/01 20:06:30;;;;;;;;;;;;;;;;;;;;;
2020/12/01 20:17:14;;;;;;;12.38;9.10;;;7.70;99.90;;;;;;4924143;28;20026;-89
2020/12/01 20:20:30;;;;;;;11.88;8.90;;;7.70;99.90;;;;;;4965908;28;20031;-89
2020/12/01 20:26:54;;;;;;;11.15;8.90;;;7.70;99.90;;;;;;4985387;28;20036;-90
2020/12/01 20:30:45;;;;;;;;;;;;;;;;;;;;;
2020/12/01 20:52:26;;;;;;;;;;;;;;;;;;;;;
2020/12/01 20:56:32;;;;;;;14.13;10.95;;;7.50;99.90;;;;;;4933371;29;20379;-88
2020/12/01 20:59:09;;;;;;;16.02;12.55;;;7.50;99.90;;;;;;4909604;29;20118;-92
2020/12/01 21:01:58;;;;;;;17.90;13.80;;;7.50;99.90;;;;;;4938954;28;20047;-89
2020/12/01 21:05:00;;;;;;;17.58;14.40;;;7.50;99.90;;;;;;4965763;28;20034;-90
2020/12/01 21:07:55;;;;;;;17.92;12.68;;;7.40;99.90;;;;;;4992968;28;20071;-90
2020/12/01 21:10:28;;;;;;;17.80;14.18;;;7.40;99.90;;;;;;5010846;28;20041;-89
2020/12/01 21:16:27;;;;;;;18.60;13.35;;;7.30;99.90;;;;;;5010258;28;20038;-88
2020/12/01 21:19:48;;;;;;;;;;;;;;;;;;;;;
2020/12/01 21:26:30;;;;;;;;;;;;;;;;;;;;;
2020/12/01 21:29:15;;;;;;;18.25;13.50;;;7.30;99.90;;;;;;5131334;27;20031;-88
2020/12/01 21:32:40;;;;;;;16.90;12.10;;;7.30;99.90;;;;;;5118318;27;20035;-87
2020/12/01 21:35:46;;;;;;;19.75;13.18;;;7.30;99.90;;;;;;5118305;27;20019;-88
2020/12/01 21:38:17;;;;;;;19.77;13.15;;;7.30;99.90;;;;;;5036184;28;20029;-88
2020/12/01 21:48:22;;;;;;;22.20;15.63;;;7.30;99.90;;;;;;4982696;28;20029;-88
2020/12/01 21:51:03;;;;;;;22.38;15.98;;;7.20;99.90;;;;;;4910932;29;20040;-88
2020/12/01 21:54:22;;;;;;;;;;;;;;;;;;;;;
2020/12/01 21:57:40;;;;;;;;;;;;;;;;;;;;;
2020/12/01 22:01:00;;;;;;;;;;;;;;;;;;;;;
2020/12/01 22:03:39;;;;;;;;;;;;;;;;;;;;;
2020/12/01 22:06:46;;;;;;;;;;;;;;;;;;;;;
2020/12/01 22:10:21;;;;;;;19.73;13.55;;;7.10;99.90;;;;;;5111593;27;20031;-88
2020/12/01 22:13:49;;;;;;;;;;;;;;;;;;;;;
2020/12/01 22:17:24;;;;;;;17.73;11.90;;;7.10;99.90;;;;;;5137101;27;20052;-88
2020/12/01 22:27:27;;;;;;;23.60;15.52;;;7.10;99.90;;;;;;5126457;27;20019;-89
2020/12/01 22:30:30;;;;;;;22.85;13.88;;;7.00;99.90;;;;;;5074677;28;20178;-89
2020/12/01 22:33:34;;;;;;;22.90;15.38;;;7.00;99.90;;;;;;5057793;28;20073;-88
2020/12/01 22:36:24;;;;;;;;;;;7.00;99.90;;;;;;5057952;28;20423;-88
2020/12/01 22:39:24;;;;;;;;;;;;;;;;;;;;;
2020/12/01 22:42:40;;;;;;;30.48;18.08;;;7.00;99.90;;;;;;4997297;28;20050;-88
2020/12/01 22:45:49;;;;;;;25.98;16.63;;;7.00;99.90;;;;;;4958643;28;20035;-88
2020/12/01 22:48:52;;;;;;;25.52;16.15;;;7.00;99.90;;;;;;4982639;28;20042;-88
2020/12/01 22:51:57;;;;;;;28.52;16.25;;;7.00;99.90;;;;;;5076832;28;20563;-87
2020/12/01 22:54:45;;;;;;;27.02;16.67;;;6.90;99.90;;;;;;5076925;28;20584;-88
2020/12/01 22:58:00;;;;;;;25.35;16.77;;;7.00;99.90;;;;;;5076415;28;20398;-89
2020/12/01 23:00:55;;;;;;;29.95;18.55;;;6.90;99.90;;;;;;5076879;28;20085;-88
2020/12/01 23:04:11;;;;;;;;;;;;;;;;;;;;;
2020/12/01 23:07:22;;;;;;;27.42;18.05;;;6.90;99.90;;;;;;5088613;27;20019;-88
2020/12/01 23:10:23;;;;;;;25.85;17.25;;;6.90;99.90;;;;;;5037256;28;20403;-88
2020/12/01 23:13:10;;;;;;;25.15;16.30;;;6.90;99.90;;;;;;5095784;27;20115;-88
2020/12/01 23:15:59;;;;;;;28.38;17.63;;;7.00;99.90;;;;;;5139148;27;20030;-89
2020/12/01 23:18:40;;;;;;;26.48;16.00;;;6.90;99.90;;;;;;5124119;27;20099;-88
2020/12/01 23:21:09;;;;;;;25.17;16.02;;;6.90;99.90;;;;;;5134557;27;20556;-88